WETTERDATEN

GESTERN
Time Temp. Taup. r.Fe. Windrich Windstärke Windböe Druck 1h Prec. 24h Prec.
00:07 -1.4 -2.4 92 0 0.3 0.8 1029 0.0000 0.0000
00:17 -1.4 -2.4 92 24 0.3 0.8 1028.8 0.0000 0.0000
00:27 -1.5 -2.5 92 0 0.8 1029 0.0000 0.0000
00:37 -1.6 -2.6 92 0 0.3 1029.1 0.0000 0.0000
00:47 -1.7 -2.7 92 0 0.8 1029.1 0.0000 0.0000
00:58 -1.7 -2.7 92 0 0.3 1029.1 0.0000 0.0000
01:08 -1.7 -2.7 92 0 0.8 1029 0.0000 0.0000
01:17 -1.8 -2.8 92 0 0.8 1028.9 0.0000 0.0000
01:27 -1.8 -2.8 92 0 0.8 1029 0.0000 0.0000
01:38 -1.8 -2.8 92 0 0.8 1028.9 0.0000 0.0000
01:48 -1.9 -2.9 92 0 0.3 1028.9 0.0000 0.0000
01:58 -2 -3 92 0 0.3 1029 0.0000 0.0000
02:08 -2 -3 92 0 0.3 1029 0.0000 0.0000
02:18 -2.1 -3.1 92 0 0.3 1028.8 0.0000 0.0000
02:28 -2.1 -3.1 92 0 0.8 1028.8 0.0000 0.0000
02:38 -2.1 -3.1 92 0 0.8 1028.6 0.0000 0.0000
02:48 -2.2 -3.2 92 0 0.3 1028.8 0.0000 0.0000
02:58 -2.2 -3.2 92 333 0.3 0.8 1028.6 0.0000 0.0000
03:08 -2.2 -3.2 92 331 0.3 0.8 1028.6 0.0000 0.0000
03:19 -2.3 -3.3 92 0 0.8 1028.7 0.0000 0.0000
03:29 -2.3 -3.3 92 0 0.8 1028.6 0.0000 0.0000
03:38 -2.2 -3.2 92 270 0.3 1.1 1028.5 0.0000 0.0000
03:48 -2.2 -3.2 92 312 0.8 1.1 1028.6 0.0000 0.0000
03:59 -2.3 -3.3 92 318 0.3 1.1 1028.4 0.0000 0.0000
04:09 -2.3 -3.3 92 308 0.8 1.1 1028.6 0.0000 0.0000
04:19 -2.3 -3.3 92 315 0.8 1.1 1028.7 0.0000 0.0000
04:29 -2.3 -3.3 92 321 0.3 1.1 1028.6 0.0000 0.0000
04:39 -2.3 -3.3 92 315 0.8 1.1 1028.5 0.0000 0.0000
04:49 -2.3 -3.3 92 320 0.8 1.4 1028.4 0.0000 0.0000
04:59 -2.3 -3.3 92 318 0.3 1.1 1028.5 0.0000 0.0000
05:10 -2.3 -3.3 92 270 0.3 1.1 1028.5 0.0000 0.0000
05:19 -2.3 -3.3 92 312 0.8 1.4 1028.6 0.0000 0.0000
05:29 -2.3 -3.3 92 319 0.8 1.7 1028.7 0.0000 0.0000
05:40 -2.3 -3.3 92 295 0.8 1.4 1028.7 0.0000 0.0000
05:50 -2.2 -3.2 92 302 0.8 1.4 1028.8 0.0000 0.0000
06:00 -2.1 -3.1 92 270 0.3 1.1 1028.7 0.0000 0.0000
06:09 -2.1 -3.1 92 322 0.8 1.1 1028.9 0.0000 0.0000
06:20 -2.2 -3.2 92 225 0.3 1.1 1028.9 0.0000 0.0000
06:30 -2.3 -3.3 92 270 0.3 1.1 1028.9 0.0000 0.0000
06:40 -2.3 -3.3 92 315 0.8 1.4 1028.8 0.0000 0.0000
06:50 -2.3 -3.3 92 210 0.3 1.1 1028.9 0.0000 0.0000
07:00 -2.3 -3.3 92 215 0.3 1.1 1028.8 0.0000 0.0000
07:10 -2.3 -3.3 92 270 0.3 1.4 1029 0.0000 0.0000
07:20 -2.3 -3.3 92 230 0.8 1.1 1029 0.0000 0.0000
07:31 -2.3 -3.3 92 233 0.8 1.1 1029 0.0000 0.0000
07:41 -2.2 -3.2 92 239 0.3 1.4 1029.1 0.0000 0.0000
07:50 -2.1 -3.1 92 270 0.8 1.7 1029 0.0000 0.0000
08:01 -1.8 -2.7 93 270 0.8 1.4 1029.1 0.0000 0.0000
08:11 -1.5 -2.4 93 248 0.8 1.7 1029.2 0.0000 0.0000
08:21 -1.3 -2.2 93 281 1.1 2.2 1029.2 0.0000 0.0000
08:30 -1 -1.9 93 270 1.1 1.7 1029.2 0.0000 0.0000
08:41 -0.8 -1.8 92 283 0.8 1.7 1029.2 0.0000 0.0000
08:51 -0.5 -1.5 92 335 0.8 1.4 1029.2 0.0000 0.0000
09:01 -0.2 -1.2 92 260 0.8 1.7 1029.5 0.1020 0.1000
09:11 0.1 -0.9 92 281 0.8 1.7 1029.5 0.1020 0.1000
09:21 0.4 -0.7 92 270 0.8 1.7 1029.5 0.1020 0.1000
09:31 0.7 -0.4 92 252 1.1 2.2 1029.6 0.1020 0.1000
09:41 1 -0.1 92 260 0.8 1.7 1029.6 0.1020 0.1000
09:52 1.4 0.2 92 295 2.2 5.8 1029.4 0.1020 0.1000
10:02 1.8 0.6 92 244 1.4 3.9 1029.7 0.0000 0.1000
10:11 2.1 0.9 92 226 1.4 3.6 1029.4 0.0000 0.1000
10:21 2.6 1.4 92 204 2.8 5.3 1029.4 0.0000 0.1000
10:27 2.8 1.6 92 229 1.4 5.8 1029.3 0.0000 0.1000
10:38 3.2 2 92 265 2.2 5.8 1029.4 0.0000 0.1000
10:48 3.6 2.4 92 278 1.4 3.6 1029.5 0.0000 0.1000
10:58 3.8 2.5 91 0 0.8 1.7 1029.4 0.0000 0.1000
11:10 3.8 2.5 91 234 3.6 8.3 1029.3 0.0000 0.1000
11:20 3.6 2.3 91 234 2.8 8.6 1029.3 0.0000 0.1000
11:31 3.4 2.1 91 219 2.8 4.2 1029.2 0.0000 0.1000
11:36 3.4 2.1 91 216 2.8 8.3 1029.3 0.0000 0.1000
11:45 3.4 2.1 91 252 0.8 2.2 1029.4 0.0000 0.1000
11:55 3.4 2.1 91 309 1.4 2.2 1029.1 0.0000 0.1000
12:06 3.4 2.1 91 312 1.7 2.8 1029 0.0000 0.1000
12:16 3.7 2.5 92 308 2.5 3.9 1029.1 0.0000 0.1000
12:25 4 2.8 92 311 2.5 3.6 1028.8 0.0000 0.1000
12:36 4.2 3 92 311 1.7 2.8 1028.7 0.0000 0.1000
12:46 4.5 3.3 92 310 1.4 2.5 1028.4 0.0000 0.1000
12:56 4.8 3.6 92 327 1.4 2.8 1028.4 0.0000 0.1000
13:06 5.2 4 92 322 1.4 2.8 1028.2 0.0000 0.1000
13:16 5.5 4.1 91 323 1.1 1.7 1027.9 0.0000 0.1000
13:26 5.9 4.5 91 336 1.1 1.7 1027.7 0.0000 0.1000
13:36 6.3 4.9 91 315 0.8 1.4 1027.8 0.0000 0.1000
13:47 6.5 5.1 91 23 0.3 1.4 1027.4 0.0000 0.1000
13:57 6.9 5.5 91 0 0.3 1.4 1027.5 0.0000 0.1000
14:06 7.2 5.8 91 90 0.8 1.7 1027.3 0.0000 0.1000
14:16 7.5 6.1 91 90 0.8 2.2 1027.3 0.0000 0.1000
14:27 7.8 6.4 91 90 0.8 2.2 1027.3 0.0000 0.1000
14:37 8 6.6 91 90 0.3 1.4 1027.3 0.0000 0.1000
14:47 8.2 6.8 91 349 0.3 1.7 1026.9 0.0000 0.1000
14:57 8.5 7 90 90 0.3 1.4 1026.9 0.0000 0.1000
15:07 8.6 7.1 90 90 0.3 1.1 1027 0.0000 0.1000
15:17 8.8 7.3 90 90 0.3 1.7 1026.8 0.0000 0.1000
15:27 9 7.4 90 90 0.3 1.7 1026.7 0.0000 0.1000
15:37 9.1 7.5 90 0 0.8 1026.6 0.0000 0.1000
15:47 9.1 7.5 90 165 0.3 1.1 1026.7 0.0000 0.1000
15:57 9.3 7.7 90 45 0.3 0.8 1026.5 0.0000 0.1000
16:08 9.4 7.8 90 206 0.3 1.7 1026.4 0.0000 0.1000
16:18 9.6 8 90 135 0.3 1.4 1026.4 0.0000 0.1000
16:27 9.6 8 90 90 0.3 1.7 1026.2 0.0000 0.1000
16:37 9.6 8 90 175 0.3 1.4 1026.3 0.0000 0.1000
16:48 10.9 9.3 90 146 0.3 1.1 1026.3 0.0000 0.1000
16:58 10.6 8.9 89 135 0.3 1.4 1026.2 0.0000 0.1000
17:08 10.1 8.4 89 176 0.3 1.1 1026.2 0.0000 0.1000
17:18 9.7 8 89 189 0.8 1.4 1026.1 0.0000 0.1000
17:28 9.3 7.6 89 180 0.3 1.4 1026.1 0.0000 0.1000
17:38 8.9 7.2 89 188 0.8 1.1 1026 0.0000 0.1000
17:48 8.4 6.7 89 188 0.8 1.4 1026.2 0.0000 0.1000
17:59 7.9 6.2 89 181 0.8 1.4 1026.4 0.0000 0.1000
18:08 7.5 5.8 89 184 0.8 1.4 1026.1 0.0000 0.1000
18:18 7.1 5.4 89 192 0.8 1.7 1026.2 0.0000 0.1000
18:28 6.7 5 89 194 0.8 1.4 1026.4 0.0000 0.1000
18:39 6.2 4.5 89 189 0.8 1.4 1026.3 0.0000 0.1000
18:49 5.8 4.3 90 168 0.3 1.1 1026.3 0.0000 0.1000
18:58 5.5 4 90 191 0.3 1.1 1026.1 0.0000 0.1000
19:09 5.1 3.6 90 191 0.3 1.1 1026.2 0.0000 0.1000
19:19 4.8 3.3 90 192 0.8 1.4 1026.2 0.0000 0.1000
19:29 4.5 3 90 195 0.3 1.1 1026.3 0.0000 0.1000
19:39 4.2 2.7 90 168 0.3 1.1 1026.2 0.0000 0.1000
19:43 4.1 2.6 90 176 0.3 0.8 1026.2 0.0000 0.1000
19:53 3.8 2.3 90 185 0.3 1.1 1026.4 0.0000 0.1000
20:02 3.5 2 90 186 0.8 1.1 1026.3 0.0000 0.1000
20:13 3.4 2.1 91 196 0.8 1.4 1026.4 0.1020 0.2000
20:31 2.9 1.4 90 196 0.3 0.8 1026.3 0.1020 0.2000
20:40 2.7 1.4 91 90 0.3 1.1 1026.3 0.1020 0.2000
20:50 2.4 1.1 91 0 0.8 1026.3 0.1020 0.2000
21:01 2.2 0.9 91 185 0.3 0.8 1026.2 0.1020 0.2000
21:11 2 0.7 91 183 0.3 1.1 1026.3 0.1020 0.2000
21:21 1.9 0.6 91 90 0.3 1.1 1026.4 0.0000 0.2000
21:30 1.8 0.5 91 176 0.3 1.4 1026.1 0.0000 0.2000
21:41 1.7 0.4 91 151 0.3 0.8 1026.3 0.0000 0.2000
21:51 1.5 0.2 91 171 0.3 0.8 1026.3 0.0000 0.2000
22:01 1.4 0.1 91 180 0.3 1.1 1026.4 0.0000 0.2000
22:11 1.2 -0.1 91 0 0.8 1026.3 0.0000 0.2000
22:22 1 -0.3 91 161 0.3 0.8 1026.2 0.0000 0.2000
22:32 0.9 -0.4 91 0 0.8 1026.2 0.0000 0.2000
22:41 0.7 -0.5 91 90 0.3 1.1 1026.3 0.0000 0.2000
22:52 0.6 -0.6 91 177 0.3 0.8 1026.3 0.0000 0.2000
23:02 0.5 -0.7 91 225 0.3 0.8 1026.2 0.0000 0.2000
23:22 0.2 -1 91 135 0.3 1.1 1026.2 0.0000 0.2000
23:32 0.1 -1.1 91 198 0.3 0.8 1026.2 0.0000 0.2000
23:42 0 -1.1 91 90 0.3 1.1 1026.2 0.0000 0.2000
23:52 -0.2 -1.3 91 144 0.3 0.8 1026 0.0000

TAGESSTATISTIK

2021-03-02
TEMPERATUR
MITTEL
2.2
MAXIMUM
10.9
16:48
MINIMUM
-2.3
03:19
LUFTDRUCK
MITTEL
1027.9
MAXIMUM
1029.7
10:02
MINIMUM
1026.0
17:38
TAUPUNKT
MITTEL
1.0
MAXIMUM
9.3
16:48
MINIMUM
-3.3
03:19
FEUCHTIGKEIT
MITTEL
91
MAXIMUM
93
08:01
MINIMUM
89
16:58
WINDSTÄRKE
MITTEL
0.7
MAXIMUM
3.6
11:10
WINDBÖE
MITTEL
1.6
MAXIMUM
8.6
11:20
WINDRICHTUNG
VORHERRSCHENDE
S
22.5%
N
2.8
NO
2.1
O
9.2
SO
4.2
S
22.5
SW
10.6
W
13.4
NW
20.4
NIEDERSCHLAG
REGEN STUNDE
0.1
REGEN TAG
0.2
TEMPERATUR (°C)
MINIMUM
-2.3
MAXIMUM
10.9
MITTEL
2.2
LUFTDRUCK (hpa)
MINIMUM
1026.0
MAXIMUM
1029.7
MITTEL
1027.9
MESSGERÄT